Time;durP1;ratioP1;P1;durP2;ratioP2;P2;SDS_P1;SDS_P2;PMS_P1;PMS_P2;Temp;Humidity;BMP_temperature;BMP_pressure;BME280_temperature;BME280_humidity;BME280_pressure;Samples;Min_cycle;Max_cycle;Signal;HPM_P1;HPM_P2
2024/02/21 06:02:12;;;;;;;24.00;8.80;;;;;;;;;;5269962;23;20547;-72
2024/02/21 06:04:39;;;;;;;11.97;6.40;;;;;;;;;;5035684;28;20419;-71
2024/02/21 06:07:05;;;;;;;15.77;5.50;;;;;;;;;;5035565;28;20405;-70
2024/02/21 06:09:31;;;;;;;18.00;6.43;;;;;;;;;;5033702;28;20478;-71
2024/02/21 06:11:57;;;;;;;17.50;6.23;;;;;;;;;;5035184;28;20517;-70
2024/02/21 06:14:23;;;;;;;16.73;6.63;;;;;;;;;;5034298;28;20452;-71
2024/02/21 06:16:49;;;;;;;26.53;7.03;;;;;;;;;;5034907;28;20822;-72
2024/02/21 06:19:15;;;;;;;22.30;6.93;;;;;;;;;;5035213;28;20413;-74
2024/02/21 06:21:41;;;;;;;20.23;6.37;;;;;;;;;;5035036;28;20432;-72
2024/02/21 06:24:07;;;;;;;17.77;5.67;;;;;;;;;;5035314;28;20499;-71
2024/02/21 06:26:33;;;;;;;29.23;6.77;;;;;;;;;;5034981;28;20439;-72
2024/02/21 06:28:59;;;;;;;15.53;6.40;;;;;;;;;;5035153;28;20448;-72
2024/02/21 06:31:25;;;;;;;13.90;5.47;;;;;;;;;;5034239;28;20456;-72
2024/02/21 06:33:51;;;;;;;22.20;6.20;;;;;;;;;;5042662;28;20413;-72
2024/02/21 06:36:17;;;;;;;14.30;5.03;;;;;;;;;;5035693;28;20409;-72
2024/02/21 06:38:43;;;;;;;13.30;6.60;;;;;;;;;;5035338;28;20504;-72
2024/02/21 06:41:19;;;;;;;17.20;4.93;;;;;;;;;;5034788;28;20429;-71
2024/02/21 06:43:48;;;;;;;26.53;5.63;;;;;;;;;;5034864;28;20451;-71
2024/02/21 06:46:28;;;;;;;13.97;5.33;;;;;;;;;;5034876;28;20493;-71
2024/02/21 06:48:56;;;;;;;20.63;6.27;;;;;;;;;;5034817;28;20448;-71
2024/02/21 06:51:22;;;;;;;19.50;5.07;;;;;;;;;;5034419;28;20502;-71
2024/02/21 06:53:48;;;;;;;18.73;5.73;;;;;;;;;;5034767;28;20397;-71
2024/02/21 06:56:14;;;;;;;15.50;4.90;;;;;;;;;;5034348;28;20405;-71
2024/02/21 06:58:40;;;;;;;14.93;4.70;;;;;;;;;;5033948;28;20745;-72
2024/02/21 07:01:06;;;;;;;15.60;5.20;;;;;;;;;;5029071;28;20445;-72
2024/02/21 07:03:32;;;;;;;11.90;4.40;;;;;;;;;;5034684;28;20414;-72
2024/02/21 07:05:58;;;;;;;15.53;4.77;;;;;;;;;;5034593;28;20909;-72
2024/02/21 07:08:24;;;;;;;13.00;5.23;;;;;;;;;;5034099;28;20409;-71
2024/02/21 07:10:50;;;;;;;14.80;4.70;;;;;;;;;;5032211;28;20518;-72
2024/02/21 07:13:17;;;;;;;13.83;4.57;;;;;;;;;;5032552;28;20750;-72
2024/02/21 07:15:43;;;;;;;10.03;4.00;;;;;;;;;;5034164;28;20782;-72
2024/02/21 07:18:09;;;;;;;20.87;5.33;;;;;;;;;;5034092;28;20410;-72
2024/02/21 07:20:37;;;;;;;16.77;5.93;;;;;;;;;;5034217;28;20507;-71
2024/02/21 07:23:03;;;;;;;33.43;6.93;;;;;;;;;;5023870;28;20426;-73
2024/02/21 07:25:29;;;;;;;12.83;5.23;;;;;;;;;;5014320;28;20426;-73
2024/02/21 07:27:55;;;;;;;21.57;6.40;;;;;;;;;;5025356;28;20442;-73
2024/02/21 07:30:21;;;;;;;22.17;4.83;;;;;;;;;;5012905;28;20469;-73
2024/02/21 07:32:50;;;;;;;26.37;5.40;;;;;;;;;;5012181;28;20444;-73
2024/02/21 07:35:16;;;;;;;7.80;3.80;;;;;;;;;;5011752;28;20418;-74
2024/02/21 07:37:41;;;;;;;15.17;4.77;;;;;;;;;;5016097;28;20422;-74
2024/02/21 07:40:13;;;;;;;12.10;5.27;;;;;;;;;;5020428;28;20516;-74
2024/02/21 07:42:39;;;;;;;15.93;6.03;;;;;;;;;;5026637;28;20422;-74
2024/02/21 07:45:05;;;;;;;17.77;5.17;;;;;;;;;;5030016;28;20409;-73
2024/02/21 07:47:31;;;;;;;25.03;6.27;;;;;;;;;;5026006;28;20410;-73
2024/02/21 07:49:57;;;;;;;13.23;4.77;;;;;;;;;;5017210;28;21020;-73
2024/02/21 07:52:23;;;;;;;21.23;5.83;;;;;;;;;;5013108;28;20433;-73
2024/02/21 07:54:49;;;;;;;16.83;4.57;;;;;;;;;;5013165;28;20414;-72
2024/02/21 07:57:14;;;;;;;13.87;4.43;;;;;;;;;;5017505;28;20418;-73
2024/02/21 07:59:40;;;;;;;19.50;4.40;;;;;;;;;;5013038;28;20415;-73
2024/02/21 08:02:06;;;;;;;8.77;4.13;;;;;;;;;;5017363;28;20470;-72
2024/02/21 08:04:33;;;;;;;10.27;3.77;;;;;;;;;;5013667;28;20410;-73
2024/02/21 08:07:02;;;;;;;10.13;4.60;;;;;;;;;;5013530;28;20921;-73
2024/02/21 08:09:28;;;;;;;15.10;4.80;;;;;;;;;;5012104;28;20430;-72
2024/02/21 08:11:54;;;;;;;9.83;4.37;;;;;;;;;;5013172;28;20436;-72
2024/02/21 08:14:20;;;;;;;17.50;4.40;;;;;;;;;;5013219;28;20410;-71
2024/02/21 08:16:46;;;;;;;15.70;4.87;;;;;;;;;;5030311;28;20421;-72
2024/02/21 08:19:12;;;;;;;12.67;4.70;;;;;;;;;;5033183;28;20412;-71
2024/02/21 08:21:38;;;;;;;8.20;3.10;;;;;;;;;;5032840;28;20444;-72
2024/02/21 08:24:04;;;;;;;11.20;3.63;;;;;;;;;;5031257;28;20417;-72
2024/02/21 08:26:31;;;;;;;8.77;3.00;;;;;;;;;;5013926;28;20413;-73
2024/02/21 08:29:00;;;;;;;7.53;3.10;;;;;;;;;;5016386;28;20964;-73
2024/02/21 08:31:33;;;;;;;13.60;3.03;;;;;;;;;;5032586;28;20902;-73
2024/02/21 08:34:02;;;;;;;12.90;3.90;;;;;;;;;;5033090;28;20449;-73
2024/02/21 08:36:29;;;;;;;8.03;3.60;;;;;;;;;;5022007;28;20422;-73
2024/02/21 08:38:55;;;;;;;8.23;3.77;;;;;;;;;;5017744;28;20546;-73
2024/02/21 08:41:23;;;;;;;14.50;4.37;;;;;;;;;;5013261;28;20465;-71
2024/02/21 08:43:49;;;;;;;11.27;3.60;;;;;;;;;;5013286;28;20418;-74
2024/02/21 08:46:15;;;;;;;8.60;3.20;;;;;;;;;;5012856;28;20436;-72
2024/02/21 08:48:41;;;;;;;8.63;3.00;;;;;;;;;;5027308;28;20421;-72
2024/02/21 08:51:07;;;;;;;12.20;4.60;;;;;;;;;;5031628;28;20492;-72
2024/02/21 08:53:33;;;;;;;6.83;2.80;;;;;;;;;;5032016;28;20421;-72
2024/02/21 08:55:59;;;;;;;9.10;3.23;;;;;;;;;;5009086;28;20751;-72
2024/02/21 08:58:26;;;;;;;16.10;3.50;;;;;;;;;;5000602;28;20820;-71
2024/02/21 09:00:52;;;;;;;6.10;3.13;;;;;;;;;;5031491;28;20457;-72
2024/02/21 09:03:19;;;;;;;9.00;3.00;;;;;;;;;;5016311;28;20876;-72
2024/02/21 09:05:46;;;;;;;5.97;2.80;;;;;;;;;;5008466;28;20837;-72
2024/02/21 09:08:12;;;;;;;9.70;3.60;;;;;;;;;;5007459;28;20434;-71
2024/02/21 09:10:39;;;;;;;12.80;3.40;;;;;;;;;;5002281;28;20480;-72
2024/02/21 09:13:07;;;;;;;7.80;3.00;;;;;;;;;;5003669;28;20414;-75
2024/02/21 09:15:33;;;;;;;10.20;3.30;;;;;;;;;;5008960;28;20410;-73
2024/02/21 09:17:59;;;;;;;8.20;2.93;;;;;;;;;;5016191;28;20422;-73
2024/02/21 09:20:25;;;;;;;9.50;3.03;;;;;;;;;;5007206;28;21032;-72
2024/02/21 09:22:52;;;;;;;6.60;2.37;;;;;;;;;;5009079;28;20433;-72
2024/02/21 09:25:18;;;;;;;5.40;2.73;;;;;;;;;;5012238;28;20426;-72
2024/02/21 09:27:44;;;;;;;6.03;3.03;;;;;;;;;;5017052;28;20508;-73
2024/02/21 09:30:10;;;;;;;12.43;3.03;;;;;;;;;;5013187;28;20458;-73
2024/02/21 09:32:37;;;;;;;6.73;3.63;;;;;;;;;;5011747;28;20405;-73
2024/02/21 09:35:03;;;;;;;10.97;3.20;;;;;;;;;;5011706;28;20402;-72
2024/02/21 09:37:29;;;;;;;13.40;3.80;;;;;;;;;;5017986;28;20918;-73
2024/02/21 09:39:55;;;;;;;6.17;2.87;;;;;;;;;;5032026;28;20413;-72
2024/02/21 09:42:22;;;;;;;9.27;3.20;;;;;;;;;;5031588;28;20429;-73
2024/02/21 09:44:49;;;;;;;7.60;3.90;;;;;;;;;;5031576;28;20418;-71
2024/02/21 09:47:20;;;;;;;9.00;3.00;;;;;;;;;;5013965;28;20453;-73
2024/02/21 09:49:46;;;;;;;6.90;3.33;;;;;;;;;;5010373;28;21021;-72
2024/02/21 09:52:14;;;;;;;5.50;3.20;;;;;;;;;;5016868;28;20505;-73
2024/02/21 09:54:41;;;;;;;9.73;3.70;;;;;;;;;;5011620;28;20517;-72
2024/02/21 09:57:07;;;;;;;12.30;3.17;;;;;;;;;;5018495;28;20453;-73
2024/02/21 09:59:33;;;;;;;11.37;3.40;;;;;;;;;;5011657;28;20414;-73
2024/02/21 10:02:00;;;;;;;17.90;3.60;;;;;;;;;;5011073;28;21090;-73
2024/02/21 10:04:26;;;;;;;9.73;3.30;;;;;;;;;;5011840;28;20414;-72
2024/02/21 10:06:52;;;;;;;11.40;2.40;;;;;;;;;;5011759;28;20421;-72
2024/02/21 10:09:22;;;;;;;15.87;3.17;;;;;;;;;;5011587;28;20977;-73
2024/02/21 10:11:49;;;;;;;11.20;2.50;;;;;;;;;;5020494;28;20838;-73
2024/02/21 10:14:15;;;;;;;6.87;2.77;;;;;;;;;;5031743;28;20776;-74
2024/02/21 10:16:42;;;;;;;7.80;3.17;;;;;;;;;;5025765;28;20432;-74
2024/02/21 10:19:16;;;;;;;3.87;2.60;;;;;;;;;;5018544;28;20452;-73
2024/02/21 10:21:42;;;;;;;4.40;2.80;;;;;;;;;;5031083;28;20515;-73
2024/02/21 10:24:10;;;;;;;4.00;2.10;;;;;;;;;;5031557;28;20939;-73
2024/02/21 10:26:37;;;;;;;8.10;2.60;;;;;;;;;;5031323;28;20785;-74
2024/02/21 10:29:03;;;;;;;8.73;3.37;;;;;;;;;;5031681;28;20469;-73
2024/02/21 10:31:29;;;;;;;9.53;3.33;;;;;;;;;;5031010;28;20916;-73
2024/02/21 10:33:56;;;;;;;12.00;3.00;;;;;;;;;;5031463;28;20405;-73
2024/02/21 10:36:22;;;;;;;4.67;2.43;;;;;;;;;;5031504;28;20409;-73
2024/02/21 10:38:47;;;;;;;6.20;2.30;;;;;;;;;;5031419;28;20923;-73
2024/02/21 10:41:18;;;;;;;9.67;2.83;;;;;;;;;;5031140;28;20450;-74
2024/02/21 10:43:47;;;;;;;9.40;2.90;;;;;;;;;;5030523;28;20915;-73
2024/02/21 10:46:13;;;;;;;8.00;3.37;;;;;;;;;;5031488;28;20466;-73
2024/02/21 10:48:43;;;;;;;13.47;3.13;;;;;;;;;;5032966;28;20425;-73
2024/02/21 10:51:20;;;;;;;5.83;2.73;;;;;;;;;;5034647;28;20986;-74
2024/02/21 10:54:06;;;;;;;6.93;3.10;;;;;;;;;;5034693;28;20397;-74
2024/02/21 10:56:36;;;;;;;6.43;2.93;;;;;;;;;;5020471;28;20444;-74
2024/02/21 10:59:03;;;;;;;7.73;2.80;;;;;;;;;;5034352;28;20417;-73
2024/02/21 11:01:31;;;;;;;9.40;3.13;;;;;;;;;;5034120;28;20451;-73
2024/02/21 11:03:59;;;;;;;5.10;2.23;;;;;;;;;;5033914;28;20409;-73
2024/02/21 11:06:25;;;;;;;10.87;2.30;;;;;;;;;;5034155;28;20436;-73
2024/02/21 11:09:04;;;;;;;4.50;2.67;;;;;;;;;;5034264;28;20416;-73
2024/02/21 11:11:30;;;;;;;6.80;2.97;;;;;;;;;;5033689;28;20429;-74
2024/02/21 11:14:06;;;;;;;8.93;3.00;;;;;;;;;;5034214;28;20755;-73
2024/02/21 11:16:35;;;;;;;6.40;2.63;;;;;;;;;;5038662;28;20439;-72
2024/02/21 11:19:05;;;;;;;3.47;2.37;;;;;;;;;;5033504;28;20496;-72
2024/02/21 11:21:38;;;;;;;6.47;2.80;;;;;;;;;;5033259;28;20464;-72
2024/02/21 11:24:04;;;;;;;9.03;3.83;;;;;;;;;;5034868;28;20676;-72
2024/02/21 11:26:31;;;;;;;6.00;2.87;;;;;;;;;;5034321;28;20444;-73
2024/02/21 11:29:02;;;;;;;9.87;3.10;;;;;;;;;;5037940;28;20409;-72
2024/02/21 11:31:38;;;;;;;8.73;2.83;;;;;;;;;;5034982;28;20429;-72
2024/02/21 11:34:04;;;;;;;7.33;3.20;;;;;;;;;;5032858;28;20497;-73
2024/02/21 11:36:31;;;;;;;8.00;2.53;;;;;;;;;;5033976;28;20493;-74
2024/02/21 11:39:04;;;;;;;5.40;2.90;;;;;;;;;;5034058;28;20417;-73
2024/02/21 11:41:30;;;;;;;4.17;2.67;;;;;;;;;;5036786;28;20982;-71
2024/02/21 11:43:56;;;;;;;10.70;2.70;;;;;;;;;;5036507;28;20487;-72
2024/02/21 11:46:23;;;;;;;6.70;2.60;;;;;;;;;;5032316;28;20784;-72
2024/02/21 11:48:52;;;;;;;10.40;2.90;;;;;;;;;;5033769;28;20409;-72
2024/02/21 11:51:27;;;;;;;3.90;2.30;;;;;;;;;;5028016;28;20438;-73
2024/02/21 11:53:53;;;;;;;6.13;2.33;;;;;;;;;;5005635;28;20432;-73
2024/02/21 11:56:20;;;;;;;7.00;2.80;;;;;;;;;;5012486;28;20476;-73
2024/02/21 11:58:49;;;;;;;8.10;2.77;;;;;;;;;;5012894;28;20988;-74
2024/02/21 12:01:15;;;;;;;5.80;3.33;;;;;;;;;;5013506;28;20500;-74
2024/02/21 12:03:42;;;;;;;5.20;2.80;;;;;;;;;;5007062;28;20417;-75
2024/02/21 12:06:08;;;;;;;5.43;2.40;;;;;;;;;;5004477;28;20419;-74
2024/02/21 12:08:44;;;;;;;6.93;2.37;;;;;;;;;;5012447;28;20414;-75
2024/02/21 12:11:19;;;;;;;8.90;2.70;;;;;;;;;;5007451;28;20473;-75
2024/02/21 12:13:45;;;;;;;8.47;2.37;;;;;;;;;;5035765;23;20501;-75
2024/02/21 12:16:12;;;;;;;9.50;2.70;;;;;;;;;;5002540;28;20519;-73
2024/02/21 12:18:39;;;;;;;8.37;2.10;;;;;;;;;;5004764;28;20868;-76
2024/02/21 12:21:05;;;;;;;9.33;3.07;;;;;;;;;;5013358;28;20445;-74
2024/02/21 12:23:31;;;;;;;15.63;2.30;;;;;;;;;;5011363;28;20453;-76
2024/02/21 12:25:59;;;;;;;10.80;3.37;;;;;;;;;;5013507;28;20414;-74
2024/02/21 12:28:25;;;;;;;5.83;2.50;;;;;;;;;;5013517;28;20410;-73
2024/02/21 12:30:52;;;;;;;5.70;2.60;;;;;;;;;;5013599;28;20457;-75
2024/02/21 12:33:18;;;;;;;5.07;2.27;;;;;;;;;;5013054;28;20834;-74
2024/02/21 12:35:44;;;;;;;4.90;2.60;;;;;;;;;;5013592;28;20422;-74
2024/02/21 12:38:11;;;;;;;4.70;2.07;;;;;;;;;;5013964;28;20473;-74
2024/02/21 12:40:37;;;;;;;9.17;2.50;;;;;;;;;;5010251;28;20437;-76
2024/02/21 12:43:03;;;;;;;14.50;3.03;;;;;;;;;;5010217;28;20430;-76
2024/02/21 12:45:29;;;;;;;10.33;2.23;;;;;;;;;;5012574;28;20585;-76
2024/02/21 12:47:55;;;;;;;8.13;2.40;;;;;;;;;;5009496;28;20461;-76
2024/02/21 12:50:22;;;;;;;6.63;3.80;;;;;;;;;;5013124;28;20476;-74
2024/02/21 12:52:49;;;;;;;3.90;1.83;;;;;;;;;;5012869;28;20893;-78
2024/02/21 12:55:16;;;;;;;5.50;2.50;;;;;;;;;;5007067;28;20441;-77
2024/02/21 12:57:42;;;;;;;5.43;2.30;;;;;;;;;;5014366;28;20505;-77
2024/02/21 13:00:08;;;;;;;7.50;2.10;;;;;;;;;;5013320;28;20470;-74
2024/02/21 13:02:35;;;;;;;6.97;1.97;;;;;;;;;;5013083;28;20426;-76
2024/02/21 13:05:02;;;;;;;3.03;1.80;;;;;;;;;;5012037;28;20454;-75
2024/02/21 13:07:28;;;;;;;4.17;1.90;;;;;;;;;;5015534;28;20774;-74
2024/02/21 13:09:54;;;;;;;4.50;1.80;;;;;;;;;;5012565;28;20513;-75
2024/02/21 13:12:20;;;;;;;4.80;1.93;;;;;;;;;;5014121;28;20417;-76
2024/02/21 13:14:46;;;;;;;5.37;2.00;;;;;;;;;;5020145;28;20460;-77
2024/02/21 13:17:12;;;;;;;8.57;2.90;;;;;;;;;;5021221;28;20450;-75
2024/02/21 13:19:38;;;;;;;5.70;2.73;;;;;;;;;;5021541;28;20429;-74
2024/02/21 13:22:04;;;;;;;4.17;2.10;;;;;;;;;;5023997;28;20422;-75
2024/02/21 13:24:31;;;;;;;3.70;1.77;;;;;;;;;;5025472;28;20445;-74
2024/02/21 13:26:57;;;;;;;3.40;2.23;;;;;;;;;;5023168;28;20448;-74
2024/02/21 13:29:23;;;;;;;4.67;1.83;;;;;;;;;;5006173;28;20454;-74
2024/02/21 13:31:49;;;;;;;7.13;2.80;;;;;;;;;;5010081;28;20406;-74
2024/02/21 13:34:17;;;;;;;4.10;1.80;;;;;;;;;;5014376;28;20791;-73
2024/02/21 13:36:43;;;;;;;6.63;2.87;;;;;;;;;;5014566;28;20414;-74
2024/02/21 13:39:12;;;;;;;4.27;1.93;;;;;;;;;;5005698;28;20426;-74
2024/02/21 13:41:38;;;;;;;6.90;2.27;;;;;;;;;;5006909;28;20425;-74
2024/02/21 13:44:04;;;;;;;7.17;1.53;;;;;;;;;;4998348;28;20783;-73
2024/02/21 13:46:30;;;;;;;5.90;1.90;;;;;;;;;;5012798;28;20417;-75
2024/02/21 13:49:06;;;;;;;2.73;1.80;;;;;;;;;;5007806;28;20468;-74
2024/02/21 13:51:33;;;;;;;7.17;2.07;;;;;;;;;;5010355;28;20503;-76
2024/02/21 13:53:59;;;;;;;3.53;1.50;;;;;;;;;;5012746;28;20452;-76
2024/02/21 13:56:25;;;;;;;5.73;2.20;;;;;;;;;;4994305;28;20411;-73
2024/02/21 13:58:51;;;;;;;3.67;1.97;;;;;;;;;;5007121;28;20451;-72
2024/02/21 14:01:18;;;;;;;4.53;2.13;;;;;;;;;;5003713;28;20764;-73
2024/02/21 14:03:44;;;;;;;2.73;1.87;;;;;;;;;;4999711;28;20442;-74
2024/02/21 14:06:10;;;;;;;3.07;1.90;;;;;;;;;;5011295;28;20421;-74
2024/02/21 14:08:36;;;;;;;4.80;2.10;;;;;;;;;;5011604;28;20775;-76
2024/02/21 14:11:02;;;;;;;6.53;1.77;;;;;;;;;;5012413;28;20461;-74
2024/02/21 14:13:28;;;;;;;5.50;2.17;;;;;;;;;;5012343;28;20430;-73
2024/02/21 14:15:54;;;;;;;4.57;2.47;;;;;;;;;;5004193;28;20461;-74
2024/02/21 14:18:21;;;;;;;5.93;2.23;;;;;;;;;;5005807;28;20541;-73
2024/02/21 14:20:47;;;;;;;3.00;1.67;;;;;;;;;;4995986;28;20457;-73
2024/02/21 14:23:13;;;;;;;4.70;1.83;;;;;;;;;;5000342;28;20425;-73
2024/02/21 14:25:39;;;;;;;4.43;2.03;;;;;;;;;;5007815;28;20481;-74
2024/02/21 14:28:06;;;;;;;6.53;2.03;;;;;;;;;;5015342;28;20422;-73
2024/02/21 14:30:32;;;;;;;6.50;2.10;;;;;;;;;;5006200;28;20492;-76
2024/02/21 14:32:57;;;;;;;5.07;1.87;;;;;;;;;;5015566;28;20845;-74
2024/02/21 14:35:23;;;;;;;4.57;1.93;;;;;;;;;;5014882;28;20812;-74
2024/02/21 14:37:49;;;;;;;3.23;1.90;;;;;;;;;;5011908;28;20914;-74
2024/02/21 14:40:15;;;;;;;5.63;2.40;;;;;;;;;;4996936;28;20433;-74
2024/02/21 14:42:41;;;;;;;3.27;2.10;;;;;;;;;;5006417;28;20528;-74
2024/02/21 14:45:08;;;;;;;5.00;2.57;;;;;;;;;;5010226;28;20810;-74
2024/02/21 14:47:34;;;;;;;4.70;2.93;;;;;;;;;;5004205;28;20434;-74
2024/02/21 14:50:00;;;;;;;4.17;2.37;;;;;;;;;;5010819;28;20479;-75
2024/02/21 14:52:27;;;;;;;9.60;2.93;;;;;;;;;;4999059;28;20423;-74
2024/02/21 14:54:53;;;;;;;2.83;1.97;;;;;;;;;;5008094;28;20928;-74
2024/02/21 14:57:20;;;;;;;11.27;2.83;;;;;;;;;;5004908;28;20422;-74
2024/02/21 14:59:47;;;;;;;6.27;2.03;;;;;;;;;;5001854;28;20423;-74
2024/02/21 15:02:13;;;;;;;5.40;3.27;;;;;;;;;;5011896;28;20445;-73
2024/02/21 15:04:39;;;;;;;8.60;3.60;;;;;;;;;;5009324;28;20465;-74
2024/02/21 15:07:05;;;;;;;11.57;4.37;;;;;;;;;;5006130;28;20433;-74
2024/02/21 15:09:31;;;;;;;7.27;2.90;;;;;;;;;;5006140;28;20493;-75
2024/02/21 15:11:56;;;;;;;15.90;3.57;;;;;;;;;;5025573;28;20414;-75
2024/02/21 15:14:23;;;;;;;8.90;3.30;;;;;;;;;;5020316;28;20468;-73
2024/02/21 15:16:49;;;;;;;5.97;2.33;;;;;;;;;;5015981;28;20533;-74
2024/02/21 15:19:15;;;;;;;5.37;2.20;;;;;;;;;;5014017;28;20418;-74
2024/02/21 15:21:41;;;;;;;4.10;1.93;;;;;;;;;;5015097;28;20414;-73
2024/02/21 15:24:07;;;;;;;7.30;2.30;;;;;;;;;;5014231;28;20817;-74
2024/02/21 15:26:33;;;;;;;9.93;2.37;;;;;;;;;;5021509;28;20888;-75
2024/02/21 15:28:59;;;;;;;5.07;2.77;;;;;;;;;;5025591;28;20418;-74
2024/02/21 15:31:25;;;;;;;4.37;2.53;;;;;;;;;;5029156;28;20509;-74
2024/02/21 15:33:52;;;;;;;4.27;2.10;;;;;;;;;;5034750;28;20445;-75
2024/02/21 15:36:19;;;;;;;6.60;2.37;;;;;;;;;;5033037;28;20418;-74
2024/02/21 15:38:45;;;;;;;4.43;2.70;;;;;;;;;;5033028;28;20436;-74
2024/02/21 15:41:13;;;;;;;3.53;2.00;;;;;;;;;;5032641;28;20425;-74
2024/02/21 15:43:39;;;;;;;6.80;3.10;;;;;;;;;;5028571;28;20438;-73
2024/02/21 15:46:05;;;;;;;6.43;2.60;;;;;;;;;;5023451;28;20411;-74
2024/02/21 15:48:34;;;;;;;8.77;3.00;;;;;;;;;;5021857;28;20474;-75
2024/02/21 15:51:00;;;;;;;5.03;2.57;;;;;;;;;;5022069;28;20515;-74
2024/02/21 15:53:26;;;;;;;10.37;2.83;;;;;;;;;;5025641;28;20414;-74
2024/02/21 15:55:53;;;;;;;6.13;2.33;;;;;;;;;;5021116;28;20886;-74
2024/02/21 15:58:22;;;;;;;5.70;2.90;;;;;;;;;;5016245;28;20509;-74
2024/02/21 16:00:48;;;;;;;5.77;2.40;;;;;;;;;;5020305;28;20426;-74
2024/02/21 16:03:14;;;;;;;6.27;2.30;;;;;;;;;;5018045;28;20794;-74
2024/02/21 16:05:42;;;;;;;5.50;2.67;;;;;;;;;;5019853;28;20504;-75
2024/02/21 16:08:08;;;;;;;5.80;3.17;;;;;;;;;;5019304;28;20417;-74
2024/02/21 16:10:34;;;;;;;8.50;2.80;;;;;;;;;;5015948;28;20476;-74
2024/02/21 16:13:00;;;;;;;7.10;2.90;;;;;;;;;;5014849;28;20415;-74
2024/02/21 16:15:26;;;;;;;8.37;2.87;;;;;;;;;;5015271;28;20933;-75
2024/02/21 16:17:52;;;;;;;5.67;2.63;;;;;;;;;;5010899;28;20420;-74
2024/02/21 16:20:18;;;;;;;5.07;2.33;;;;;;;;;;5012647;28;20427;-74
2024/02/21 16:22:44;;;;;;;5.70;2.50;;;;;;;;;;5020572;28;20426;-75
2024/02/21 16:25:10;;;;;;;5.13;3.00;;;;;;;;;;5025903;28;20441;-75
2024/02/21 16:27:38;;;;;;;5.20;3.00;;;;;;;;;;5025389;28;20425;-74
2024/02/21 16:30:05;;;;;;;3.30;2.03;;;;;;;;;;5030860;28;20488;-76
2024/02/21 16:32:32;;;;;;;6.10;2.77;;;;;;;;;;5032037;28;20425;-75
2024/02/21 16:34:57;;;;;;;24.33;3.37;;;;;;;;;;5032732;28;20437;-74
2024/02/21 16:37:23;;;;;;;6.87;2.43;;;;;;;;;;5032015;28;20430;-74
2024/02/21 16:39:49;;;;;;;5.33;3.33;;;;;;;;;;5032960;28;20440;-73
2024/02/21 16:42:15;;;;;;;4.60;2.43;;;;;;;;;;5018143;28;20893;-73
2024/02/21 16:44:41;;;;;;;12.03;3.83;;;;;;;;;;5014198;28;20525;-74
2024/02/21 16:47:08;;;;;;;9.67;3.10;;;;;;;;;;5014373;28;20460;-74
2024/02/21 16:49:34;;;;;;;8.83;2.33;;;;;;;;;;5014545;28;20465;-74
2024/02/21 16:52:00;;;;;;;4.73;2.60;;;;;;;;;;5013723;28;20409;-74
2024/02/21 16:54:26;;;;;;;7.07;3.03;;;;;;;;;;5012742;28;20771;-72
2024/02/21 16:56:52;;;;;;;9.63;2.93;;;;;;;;;;5013559;28;20457;-74
2024/02/21 16:59:18;;;;;;;5.60;2.90;;;;;;;;;;5014513;28;20413;-74
2024/02/21 17:01:44;;;;;;;10.50;2.70;;;;;;;;;;5012585;28;20420;-74
2024/02/21 17:04:11;;;;;;;11.90;3.43;;;;;;;;;;5010586;28;20922;-74
2024/02/21 17:06:37;;;;;;;6.47;3.40;;;;;;;;;;4996729;28;20465;-73
2024/02/21 17:09:03;;;;;;;8.97;2.87;;;;;;;;;;4994373;28;20411;-74
2024/02/21 17:11:29;;;;;;;11.63;3.20;;;;;;;;;;5013257;28;20411;-73
2024/02/21 17:13:55;;;;;;;9.90;3.20;;;;;;;;;;5015341;28;20461;-75
2024/02/21 17:16:21;;;;;;;7.73;3.00;;;;;;;;;;5012550;28;20418;-74
2024/02/21 17:18:47;;;;;;;11.30;4.20;;;;;;;;;;5013448;28;20898;-74
2024/02/21 17:21:14;;;;;;;8.80;3.93;;;;;;;;;;5016699;28;20907;-74
2024/02/21 17:23:40;;;;;;;15.03;3.60;;;;;;;;;;5015269;28;20512;-73
2024/02/21 17:26:06;;;;;;;15.43;4.93;;;;;;;;;;5013395;28;20468;-74
2024/02/21 17:28:32;;;;;;;10.10;4.20;;;;;;;;;;5013282;28;20416;-73
2024/02/21 17:30:58;;;;;;;10.00;4.10;;;;;;;;;;5025899;28;20477;-75
2024/02/21 17:33:24;;;;;;;12.97;4.37;;;;;;;;;;5017954;28;20410;-73
2024/02/21 17:35:50;;;;;;;9.23;4.40;;;;;;;;;;5013412;28;20758;-73
2024/02/21 17:38:21;;;;;;;9.23;4.07;;;;;;;;;;5015695;28;20480;-73
2024/02/21 17:40:49;;;;;;;13.83;4.83;;;;;;;;;;5018659;28;20454;-73
2024/02/21 17:43:15;;;;;;;13.87;5.37;;;;;;;;;;5018660;28;20428;-76
2024/02/21 17:45:41;;;;;;;14.63;5.40;;;;;;;;;;5019106;28;20417;-75
2024/02/21 17:48:07;;;;;;;12.90;4.27;;;;;;;;;;5017657;28;20422;-75
2024/02/21 17:50:33;;;;;;;15.70;5.20;;;;;;;;;;5016327;28;20454;-75
2024/02/21 17:53:00;;;;;;;8.60;4.53;;;;;;;;;;5017053;28;20414;-74
2024/02/21 17:55:26;;;;;;;9.57;5.10;;;;;;;;;;5015553;28;20533;-75
2024/02/21 17:57:54;;;;;;;13.90;4.70;;;;;;;;;;5016129;28;20446;-75
2024/02/21 18:00:21;;;;;;;10.20;5.00;;;;;;;;;;5016760;28;20472;-76
2024/02/21 18:02:50;;;;;;;8.93;4.53;;;;;;;;;;5015922;28;20448;-75
2024/02/21 18:05:16;;;;;;;7.27;3.93;;;;;;;;;;5015377;28;20434;-74
2024/02/21 18:07:42;;;;;;;13.27;4.40;;;;;;;;;;5017542;28;20417;-75
2024/02/21 18:10:08;;;;;;;12.90;4.57;;;;;;;;;;5016424;28;20552;-77
2024/02/21 18:12:34;;;;;;;13.13;5.10;;;;;;;;;;5016040;28;20915;-77
2024/02/21 18:15:01;;;;;;;8.90;5.03;;;;;;;;;;5051387;23;20493;-76
2024/02/21 18:17:26;;;;;;;15.50;4.70;;;;;;;;;;5034350;28;20501;-76
2024/02/21 18:19:52;;;;;;;9.90;4.47;;;;;;;;;;5020721;28;20491;-76
2024/02/21 18:22:18;;;;;;;12.77;4.90;;;;;;;;;;5036742;28;20409;-76
2024/02/21 18:24:44;;;;;;;13.83;5.73;;;;;;;;;;5035669;28;20433;-76
2024/02/21 18:27:10;;;;;;;13.07;5.63;;;;;;;;;;5036013;28;20440;-76
2024/02/21 18:29:37;;;;;;;10.33;6.30;;;;;;;;;;5035755;28;20460;-76
2024/02/21 18:32:03;;;;;;;12.07;6.07;;;;;;;;;;5034597;28;20485;-75
2024/02/21 18:34:29;;;;;;;11.47;5.10;;;;;;;;;;5036240;28;20519;-75
2024/02/21 18:36:55;;;;;;;10.97;4.87;;;;;;;;;;5036225;28;20455;-77
2024/02/21 18:39:22;;;;;;;11.30;4.90;;;;;;;;;;5027847;28;20508;-76
2024/02/21 18:41:49;;;;;;;11.83;4.83;;;;;;;;;;5032666;28;20435;-75
2024/02/21 18:44:15;;;;;;;11.73;5.53;;;;;;;;;;5035057;28;20443;-74
2024/02/21 18:46:41;;;;;;;14.50;5.83;;;;;;;;;;5021870;28;20789;-76
2024/02/21 18:49:07;;;;;;;12.70;5.53;;;;;;;;;;5015568;28;20413;-75
2024/02/21 18:51:33;;;;;;;12.60;5.93;;;;;;;;;;5025214;28;20437;-75
2024/02/21 18:53:59;;;;;;;13.00;6.30;;;;;;;;;;5029397;28;20448;-73
2024/02/21 18:56:28;;;;;;;17.80;6.53;;;;;;;;;;5034677;28;20428;-76
2024/02/21 18:58:54;;;;;;;17.57;7.57;;;;;;;;;;5035695;28;20421;-76
2024/02/21 19:01:20;;;;;;;18.90;7.30;;;;;;;;;;5025753;28;20817;-76
2024/02/21 19:03:47;;;;;;;17.70;6.70;;;;;;;;;;5042296;28;20428;-74
2024/02/21 19:06:14;;;;;;;15.67;6.00;;;;;;;;;;5028041;28;20421;-74
2024/02/21 19:08:41;;;;;;;10.60;3.50;;;;;;;;;;5036545;28;20493;-73
2024/02/21 19:11:07;;;;;;;12.87;4.87;;;;;;;;;;5013785;28;20477;-73
2024/02/21 19:13:33;;;;;;;6.07;3.10;;;;;;;;;;5025365;28;20421;-76
2024/02/21 19:15:59;;;;;;;11.53;4.57;;;;;;;;;;5036836;28;20443;-76
2024/02/21 19:18:24;;;;;;;8.13;4.23;;;;;;;;;;5030452;28;20861;-76
2024/02/21 19:20:51;;;;;;;4.90;3.10;;;;;;;;;;5025462;28;20422;-76
2024/02/21 19:23:17;;;;;;;6.90;3.57;;;;;;;;;;5042769;28;20885;-75
2024/02/21 19:25:43;;;;;;;10.93;4.43;;;;;;;;;;5034162;28;20447;-74
2024/02/21 19:28:12;;;;;;;12.60;3.40;;;;;;;;;;5033944;28;20908;-74
2024/02/21 19:30:41;;;;;;;6.23;3.23;;;;;;;;;;5034360;28;20910;-74
2024/02/21 19:33:09;;;;;;;8.60;2.80;;;;;;;;;;5033226;28;20775;-75
2024/02/21 19:35:35;;;;;;;4.07;2.27;;;;;;;;;;5040133;28;20881;-74
2024/02/21 19:38:04;;;;;;;4.93;3.03;;;;;;;;;;5043871;28;20444;-74
2024/02/21 19:40:33;;;;;;;9.63;3.70;;;;;;;;;;5034790;28;20413;-73
2024/02/21 19:43:02;;;;;;;5.20;2.90;;;;;;;;;;5033585;28;20785;-75
2024/02/21 19:45:28;;;;;;;4.50;2.87;;;;;;;;;;5026530;28;20532;-75
2024/02/21 19:47:58;;;;;;;17.00;4.00;;;;;;;;;;5033847;28;20413;-75
2024/02/21 19:50:29;;;;;;;9.23;3.70;;;;;;;;;;5034344;28;20559;-73
2024/02/21 19:52:56;;;;;;;7.37;3.40;;;;;;;;;;5033738;28;20493;-76
2024/02/21 19:55:22;;;;;;;5.00;2.83;;;;;;;;;;5033965;28;20433;-76
2024/02/21 19:57:48;;;;;;;4.93;2.70;;;;;;;;;;5034146;28;20979;-76
2024/02/21 20:00:14;;;;;;;13.20;4.03;;;;;;;;;;5032711;28;20417;-75
2024/02/21 20:02:40;;;;;;;8.87;4.00;;;;;;;;;;5033847;28;20566;-75
2024/02/21 20:05:09;;;;;;;11.10;5.30;;;;;;;;;;5033503;28;20468;-74
2024/02/21 20:07:35;;;;;;;11.00;4.37;;;;;;;;;;5033905;28;20417;-76
2024/02/21 20:10:07;;;;;;;7.63;3.70;;;;;;;;;;5033625;28;20465;-76
2024/02/21 20:12:33;;;;;;;7.70;3.67;;;;;;;;;;5033940;28;20502;-76
2024/02/21 20:15:00;;;;;;;6.70;2.87;;;;;;;;;;5037954;28;20464;-74
2024/02/21 20:17:26;;;;;;;4.07;2.70;;;;;;;;;;5028079;28;20522;-75
2024/02/21 20:19:52;;;;;;;4.57;2.50;;;;;;;;;;5023540;28;20933;-75
2024/02/21 20:22:18;;;;;;;4.53;2.40;;;;;;;;;;5030960;28;20475;-75
2024/02/21 20:24:44;;;;;;;3.70;2.33;;;;;;;;;;5026768;28;20473;-73
2024/02/21 20:27:12;;;;;;;4.67;2.47;;;;;;;;;;5024500;28;20904;-74
2024/02/21 20:29:38;;;;;;;4.23;2.43;;;;;;;;;;5040851;28;20980;-74
2024/02/21 20:32:04;;;;;;;7.30;2.63;;;;;;;;;;5033394;28;20908;-74
2024/02/21 20:34:30;;;;;;;5.57;3.50;;;;;;;;;;5032976;28;20944;-73
2024/02/21 20:36:57;;;;;;;8.63;2.70;;;;;;;;;;5032696;28;20579;-75